KCVG/CVG METAR and TAF weather

Enter ICAO airport designator
Station Type Date Time Source
KCVG METAR 2018/12/10 23:52 UTC NOAA

KCVG 102352Z 34005KT 6SM HZ CLR M04/M07 A3025 RMK AO2 SLP253 T10391072 10022 21044 52009


Station Type Date Time Source
KCVG Decoded METAR 2018/12/10 23:52 UTC NOAA

CINCINNATI/NORTHERN KY INTERNATIONAL , KY, United States (KCVG) 39-03N 084-40W 269M
Dec 10, 2018 - 06:52 PM EST / 2018.12.10 2352 UTC
Wind: from the NNW (340 degrees) at 6 MPH (5 KT):0
Visibility: 6 mile(s):0
Sky conditions: clear
Weather: haze
Temperature: 25.0 F (-3.9 C)
Windchill: 17 F (-8 C):1
Dew Point: 19.0 F (-7.2 C)
Relative Humidity: 77%
Pressure (altimeter): 30.25 in. Hg (1024 hPa)
Pressure tendency: 0.03 inches (0.9 hPa) higher than three hours ago
ob: KCVG 102352Z 34005KT 6SM HZ CLR M04/M07 A3025 RMK AO2 SLP253 T10391072 10022 21044 52009
cycle: 0

Station Type Date Time Source
KCVG TAF 2018/12/10 21:52 UTC NOAA

TAF
AMD KCVG 102050Z 1021/1124 34005KT P6SM SKC
FM110600 25004KT P6SM SKC
FM111200 23008KT P6SM SKC
FM111700 24012KT P6SM SCT250


Example: see airport list